Aérodrome :
LOGIN :

S'inscrire | Disclaimer

   EN    FR    IT 

 










Légende :    VFR   VFR Marginal   IFR   IFR Intensif   IFR Très Intensif
Visi : 
Plafond : 
>= 8 km
>= 3000ft
5 à 8 km
1000 à 3000 ft
1500m à 5 km
500 à 1000 ft
800 à 1500m
200 à 500 ft
< 800m
< 200 ft
Symboles :   Orages  Brouillard  Fortes neiges  Fortes précipitations  Vent > 20 kt
SIGMETs :   Divers  Orages  Givrage  Turbulence  Onde Orograph.  Cendres Volcan.






- Altitude de l'aérodrome : 257 ft
- Code IATA : MAN


EGCC - Manchester

DERNIER METAR :
  • 091950Z AUTO 15004KT 9999 BKN033 BKN041 02/00 Q1022

METARs EXPIRÉS :
  • 091920Z AUTO 17004KT 9999 FEW043 03/00 Q1021
  • 091850Z AUTO 20003KT 9999 SCT043 03/00 Q1021 NOSIG
  • 091820Z AUTO 23003KT 9999 NCD 04/01 Q1021 NOSIG
  • 091750Z AUTO VRB02KT 9999 NCD 04/01 Q1021
  • 091720Z AUTO VRB02KT 9999 NCD 05/01 Q1020

TAF TAF EGCC
Valide du 09 à 18h jusqu'au 11 à 00h UTC


091703Z 0918/1024 22005KT 9999 FEW030
BECMG 0923/1002 15010KT
PROB40
TEMPO 1002/1006 16015G27KT
BECMG 1006/1009 17018G30KT
PROB30
TEMPO 1007/1013 8000 RA BKN014
PROB40
TEMPO 1009/1016 17025G42KT
TEMPO 1013/1019 6000 RA BKN011
PROB30
TEMPO 1014/1017 4000 +RA BKN008
BECMG 1015/1017 25015G25KT
BECMG 1017/1020 23012KT
ATIS : +44 161 499 2324



MET'MAP, la Météo Aéronautique d'un coup d'oeil ! - Copyright ORBIFLY Décembre 2007 - Disclaimer

ORBIFLY MET'MAP TEAM :

Programmation & Développement : Alexandra Zaïnal
Sur une idée originale de : Baudouin d'Aumeries
Assistance à la programmation : Marc-Olivier Méhu
Soutien technique & logistique : Manuel Goepfert

Contact : metmap@orbifly.com




SOURCES & CREDITS :

   NOAA